Latest Weather Observations for Padthaway

IDS60801

Issued at 10:05 pm CDT Friday 21 November 2014 (issued every 30 minutes, with the page automatically refreshed every 10 minutes)

About weather observations | Map of weather stations | Latest weather observations for SA | Other Formats
Station Details ID: 026100 Name: PADTHAWAY SOUTH Lat: -36.65 Lon: 140.52 Height: 37.0 m
Data from the previous 72 hours. | See also: Recent months at Padthaway
Date/Time
CDT
Temp
°C
App
Temp
°C
Dew
Point
Rel
Hum
%
Delta-T
°C
Wind Press
QNH
hPa
Press
MSL
hPa
Rain
since 9 am
mm
Dir
 
Spd
km/h
Gust
km/h
Spd
kts
Gust
kts
21/10:00pm 13.2 12.4 9.6 79 1.8 E 4 9 2 5 - - 0.0
21/09:30pm 14.4 14.6 10.6 78 2.0 NNE 0 6 0 3 - - 0.0
21/09:00pm 14.8 15.0 10.6 76 2.2 CALM 0 0 0 0 - - 0.0
21/08:30pm 15.9 14.9 8.9 63 3.6 W 4 7 2 4 - - 0.0
21/08:00pm 16.4 16.2 8.9 61 3.9 CALM 0 0 0 0 - - 0.0
21/07:30pm 19.2 16.8 4.2 37 7.2 SW 6 9 3 5 - - 0.0
21/07:00pm 21.0 17.0 2.8 30 8.6 W 13 17 7 9 - - 0.0
21/06:30pm 21.9 17.7 1.5 26 9.4 W 13 19 7 10 - - 0.0
21/06:00pm 22.3 17.9 2.9 28 9.2 W 15 22 8 12 - - 0.0
21/05:30pm 22.7 18.1 3.8 29 9.2 W 17 26 9 14 - - 0.0
21/05:00pm 23.2 18.7 6.0 33 8.7 W 19 30 10 16 - - 0.0
21/04:30pm 23.3 19.0 7.0 35 8.4 W 19 30 10 16 - - 0.0
21/04:00pm 23.4 18.9 7.1 35 8.5 W 20 32 11 17 - - 0.0
21/03:30pm 23.8 20.0 7.4 35 8.6 WNW 17 26 9 14 - - 0.0
21/03:00pm 23.9 20.3 8.3 37 8.3 W 17 28 9 15 - - 0.0
21/02:30pm 23.5 20.3 8.4 38 8.0 WNW 15 24 8 13 - - 0.0
21/02:00pm 22.4 18.7 7.8 39 7.6 W 17 24 9 13 - - 0.0
21/01:30pm 22.5 18.5 9.0 42 7.2 WNW 20 28 11 15 - - 0.0
21/01:00pm 21.5 17.3 8.4 43 6.9 NW 20 28 11 15 - - 0.0
21/12:30pm 21.0 17.7 9.6 48 6.1 W 17 22 9 12 - - 0.0
21/12:00pm 19.9 16.1 8.9 49 5.8 WNW 19 26 10 14 - - 0.0
21/11:30am 19.4 18.1 10.1 55 5.0 N 7 17 4 9 - - 0.0
21/11:00am 18.3 16.5 9.6 57 4.6 WNW 9 13 5 7 - - 0.0
21/10:30am 17.4 15.1 9.1 58 4.3 WNW 11 17 6 9 - - 0.0
21/10:00am 16.9 14.2 9.1 60 4.0 W 13 19 7 10 - - 0.0
21/09:30am 16.4 15.4 8.9 61 3.9 S 4 13 2 7 - - 0.0
21/09:00am 15.5 13.8 8.3 62 3.6 S 7 9 4 5 - - 6.2
21/08:30am 15.0 14.9 9.4 69 2.9 CALM 0 7 0 4 - - 6.2
21/08:00am 14.2 13.7 9.2 72 2.6 SSE 2 9 1 5 - - 6.2
21/07:30am 12.5 12.4 9.5 82 1.5 CALM 0 0 0 0 - - 6.2
21/07:00am 11.9 12.1 10.5 91 0.7 CALM 0 0 0 0 - - 6.2
21/06:30am 10.2 10.1 9.3 94 0.4 CALM 0 0 0 0 - - 6.2
21/06:00am 10.0 9.8 9.2 95 0.4 SW 0 0 0 0 - - 6.2
21/05:30am 9.9 9.7 9.0 94 0.4 CALM 0 0 0 0 - - 6.2
21/05:00am 10.8 9.7 10.0 95 0.4 W 6 9 3 5 - - 6.2
21/04:30am 10.9 9.7 10.3 96 0.3 W 7 11 4 6 - - 6.2
21/04:00am 10.2 8.7 9.3 94 0.4 NW 7 9 4 5 - - 6.2
21/03:30am 10.7 10.5 9.1 90 0.8 CALM 0 0 0 0 - - 6.2
21/03:00am 11.8 11.2 10.5 92 0.7 WSW 4 7 2 4 - - 6.2
21/02:30am 12.5 11.2 11.4 93 0.6 WSW 9 13 5 7 - - 6.2
21/02:00am 12.9 11.7 11.5 91 0.7 SW 9 15 5 8 - - 6.2
21/01:30am 13.6 11.0 12.0 90 0.9 SW 17 22 9 12 - - 6.2
21/01:00am 13.7 11.6 12.4 92 0.7 SW 15 22 8 12 - - 6.2
21/12:30am 13.7 11.3 12.6 93 0.6 SW 17 26 9 14 - - 6.2
21/12:00am 14.5 12.1 13.7 95 0.4 WSW 19 28 10 15 - - 6.2
 
Date/Time
CDT
Temp
°C
App
Temp
°C
Dew
Point
Rel
Hum
%
Delta-T
°C
Wind Press
QNH
hPa
Press
MSL
hPa
Rain
since 9 am
mm
Dir
 
Spd
km/h
Gust
km/h
Spd
kts
Gust
kts
20/11:30pm 14.9 13.7 13.9 94 0.6 W 13 17 7 9 - - 6.0
20/11:00pm 14.9 14.1 13.9 94 0.6 W 11 17 6 9 - - 6.0
20/10:30pm 15.2 12.8 13.9 92 0.7 W 19 28 10 15 - - 6.0
20/10:00pm 15.8 14.1 13.5 86 1.3 WSW 15 22 8 12 - - 6.0
20/09:30pm 15.7 13.3 12.5 81 1.8 W 17 22 9 12 - - 6.0
20/09:00pm 16.0 14.0 12.7 81 1.8 WSW 15 28 8 15 - - 6.0
20/08:30pm 16.2 13.6 13.1 82 1.7 W 19 28 10 15 - - 6.0
20/08:00pm 16.3 13.8 13.6 84 1.5 W 19 26 10 14 - - 6.0
20/07:30pm 17.5 15.2 14.2 81 1.9 W 19 26 10 14 - - 6.0
20/07:00pm 18.4 16.3 15.1 81 1.9 WNW 20 32 11 17 - - 6.0
20/06:30pm 18.9 16.8 15.2 79 2.2 W 20 28 11 15 - - 6.0
20/06:00pm 18.7 16.1 15.9 84 1.7 W 24 39 13 21 - - 6.0
20/05:30pm 19.3 16.8 17.1 87 1.3 W 26 43 14 23 - - 6.0
20/05:00pm 20.2 17.3 18.0 87 1.4 WNW 30 41 16 22 - - 6.0
20/04:57pm 20.0 16.6 17.6 86 1.5 WNW 32 41 17 22 - - 6.0
20/04:55pm 20.3 15.5 18.4 89 1.2 NNW 41 52 22 28 - - 6.0
20/04:30pm 20.4 19.8 18.9 91 0.9 NNW 20 28 11 15 - - 5.4
20/04:00pm 20.0 19.5 18.7 92 0.8 NNW 19 26 10 14 - - 5.4
20/03:30pm 20.1 19.5 18.4 90 1.1 NNW 19 24 10 13 - - 4.8
20/03:00pm 19.9 19.4 18.6 92 0.8 NNW 19 28 10 15 - - 4.8
20/02:30pm 19.4 18.6 18.1 92 0.8 NNW 19 28 10 15 - - 4.8
20/02:00pm 19.2 18.2 17.9 92 0.8 NNW 20 30 11 16 - - 3.8
20/01:30pm 19.6 18.0 17.4 87 1.3 NW 22 33 12 18 - - 1.4
20/01:00pm 20.2 19.2 17.6 85 1.6 NW 19 30 10 16 - - 0.8
20/12:30pm 20.2 18.0 17.0 82 1.9 NW 24 37 13 20 - - 0.4
20/12:00pm 21.5 19.9 16.5 73 3.0 NW 20 35 11 19 - - 0.0
20/11:30am 21.8 19.8 15.4 67 3.8 NW 20 33 11 18 - - 0.0
20/11:00am 22.0 20.2 15.6 67 3.8 NW 19 33 10 18 - - 0.0
20/10:30am 22.0 18.0 14.1 61 4.6 WNW 28 39 15 21 - - 0.0
20/10:00am 24.8 21.0 11.0 42 7.7 WNW 22 33 12 18 - - 0.0
20/09:30am 25.1 20.7 9.0 36 8.7 NW 22 35 12 19 - - 0.0
20/09:00am 24.6 20.1 6.8 32 9.3 NW 20 28 11 15 - - 0.0
20/08:30am 24.1 20.3 5.9 31 9.3 NNW 15 22 8 12 - - 0.0
20/08:00am 23.7 19.9 5.6 31 9.2 NNW 15 20 8 11 - - 0.0
20/07:30am 23.3 19.1 3.8 28 9.5 NNW 15 22 8 12 - - 0.0
20/07:00am 23.4 18.3 2.8 26 9.9 NW 19 26 10 14 - - 0.0
20/06:30am 24.0 18.1 1.6 23 10.6 NNW 22 33 12 18 - - 0.0
20/06:00am 24.0 18.0 1.0 22 10.7 NNW 22 32 12 17 - - 0.0
20/05:30am 24.6 18.1 0.2 20 11.2 N 24 35 13 19 - - 0.0
20/05:00am 25.2 18.3 0.0 19 11.6 N 26 37 14 20 - - 0.0
20/04:30am 24.0 18.4 1.0 22 10.7 N 20 30 11 16 - - 0.0
20/04:00am 23.1 17.9 2.6 26 9.8 N 19 32 10 17 - - 0.0
20/03:30am 23.0 17.8 2.5 26 9.7 NNE 19 26 10 14 - - 0.0
20/03:00am 21.6 17.7 3.3 30 8.7 NNE 13 19 7 10 - - 0.0
20/02:30am 19.9 16.5 4.0 35 7.6 NE 11 13 6 7 - - 0.0
20/02:00am 20.3 17.0 4.4 35 7.7 NE 11 13 6 7 - - 0.0
20/01:30am 21.2 17.5 4.3 33 8.2 NE 13 19 7 10 - - 0.0
20/01:00am 22.0 17.1 4.1 31 8.7 NE 19 24 10 13 - - 0.0
20/12:30am 21.3 18.0 4.4 33 8.2 ENE 11 15 6 8 - - 0.0
20/12:00am 18.5 15.4 5.4 42 6.4 E 11 15 6 8 - - 0.0
 
Date/Time
CDT
Temp
°C
App
Temp
°C
Dew
Point
Rel
Hum
%
Delta-T
°C
Wind Press
QNH
hPa
Press
MSL
hPa
Rain
since 9 am
mm
Dir
 
Spd
km/h
Gust
km/h
Spd
kts
Gust
kts
19/11:30pm 17.9 16.7 7.9 52 5.1 E 4 7 2 4 - - 0.0
19/11:00pm 17.4 15.0 6.9 50 5.2 E 9 11 5 6 - - 0.0
19/10:30pm 16.6 14.5 8.1 57 4.3 E 9 13 5 7 - - 0.0
19/10:00pm 16.3 14.5 8.0 58 4.2 E 7 9 4 5 - - 0.0
19/09:30pm 17.1 15.2 7.5 53 4.8 SE 7 9 4 5 - - 0.0
19/09:00pm 18.0 16.6 7.1 49 5.5 E 4 7 2 4 - - 0.0
19/08:30pm 19.5 18.7 8.2 48 5.9 W 2 7 1 4 - - 0.0
19/08:00pm 23.0 20.1 4.5 30 9.1 W 9 11 5 6 - - 0.0
19/07:30pm 26.1 22.7 4.0 24 11.0 W 11 15 6 8 - - 0.0
19/07:00pm 28.1 23.6 4.4 22 12.1 W 17 24 9 13 - - 0.0
19/06:30pm 29.7 25.3 2.9 18 13.4 W 15 22 8 12 - - 0.0
19/06:00pm 30.2 25.9 3.3 18 13.6 W 15 24 8 13 - - 0.0
19/05:30pm 30.1 25.4 3.2 18 13.6 WSW 17 26 9 14 - - 0.0
19/05:00pm 31.4 26.9 -0.3 13 15.2 WNW 13 15 7 8 - - 0.0
19/04:30pm 31.1 24.7 -1.6 12 15.3 N 22 33 12 18 - - 0.0
19/04:00pm 31.2 25.5 -0.5 13 15.2 NW 19 32 10 17 - - 0.0
19/03:30pm 31.1 25.2 -0.5 13 15.1 NW 20 30 11 16 - - 0.0
19/03:00pm 30.5 24.3 0.0 14 14.6 NW 22 37 12 20 - - 0.0
19/02:30pm 29.9 23.4 0.5 15 14.2 N 24 37 13 20 - - 0.0
19/02:00pm 30.2 25.0 2.5 17 13.8 NNW 19 32 10 17 - - 0.0
19/01:30pm 29.1 22.7 0.7 16 13.7 NNW 24 37 13 20 - - 0.0
19/01:00pm 28.3 23.2 3.9 21 12.3 NNW 20 33 11 18 - - 0.0
19/12:30pm 27.7 21.8 4.1 22 11.9 NW 24 35 13 19 - - 0.0
19/12:00pm 26.9 21.1 4.6 24 11.3 NW 24 33 13 18 - - 0.0
19/11:30am 25.9 20.9 4.4 25 10.8 NW 20 26 11 14 - - 0.0
19/11:00am 24.8 19.2 5.6 29 9.8 N 24 32 13 17 - - 0.0
19/10:30am 24.7 20.0 6.0 30 9.6 N 20 33 11 18 - - 0.0
19/10:00am 23.1 18.8 6.8 35 8.4 N 19 26 10 14 - - 0.0
19/09:30am 21.7 16.7 7.9 41 7.2 NNE 24 33 13 18 - - 0.0
19/09:00am 19.9 16.3 8.3 47 6.0 NNE 17 24 9 13 - - 0.0
19/08:30am 17.2 13.6 8.4 56 4.5 NNE 17 24 9 13 - - 0.0
19/08:00am 16.0 12.4 8.2 60 3.9 NNE 17 24 9 13 - - 0.0
19/07:30am 14.5 13.0 9.1 70 2.8 NE 7 15 4 8 - - 0.0
19/07:00am 10.6 9.8 8.2 85 1.2 SE 2 11 1 6 - - 0.0
19/06:30am 8.1 7.4 6.9 92 0.6 CALM 0 0 0 0 - - 0.0
19/06:00am 6.8 5.0 5.6 92 0.5 SSE 4 7 2 4 - - 0.0
19/05:30am 7.2 6.2 5.5 89 0.8 CALM 0 0 0 0 - - 0.0
19/05:00am 8.0 7.1 6.1 88 0.9 CALM 0 0 0 0 - - 0.0
19/04:30am 8.9 6.9 7.0 88 0.9 SSE 7 9 4 5 - - 0.0
19/04:00am 10.2 7.6 7.8 85 1.2 ESE 11 15 6 8 - - 0.0
19/03:30am 10.4 7.9 8.0 85 1.2 ESE 11 15 6 8 - - 0.0
19/03:00am 10.2 7.7 8.0 86 1.1 ESE 11 15 6 8 - - 0.0
19/02:30am 10.3 7.8 8.1 86 1.1 ESE 11 15 6 8 - - 0.0
19/02:00am 9.8 7.2 7.6 86 1.1 ESE 11 15 6 8 - - 0.0
19/01:30am 9.0 6.6 6.8 86 1.0 ESE 9 9 5 5 - - 0.0
19/01:00am 9.8 7.1 7.2 84 1.2 SE 11 15 6 8 - - 0.0
19/12:30am 10.0 7.3 7.3 83 1.3 SE 11 15 6 8 - - 0.0
19/12:00am 9.8 7.4 7.1 83 1.3 SE 9 11 5 6 - - 0.0
 
Date/Time
CDT
Temp
°C
App
Temp
°C
Dew
Point
Rel
Hum
%
Delta-T
°C
Wind Press
QNH
hPa
Press
MSL
hPa
Rain
since 9 am
mm
Dir
 
Spd
km/h
Gust
km/h
Spd
kts
Gust
kts
18/11:30pm 10.3 7.9 7.2 81 1.5 SE 9 11 5 6 - - 0.0
18/11:00pm 11.9 9.6 7.4 74 2.2 S 9 13 5 7 - - 0.0
18/10:30pm 12.8 9.8 7.5 70 2.6 S 13 17 7 9 - - 0.0

Other Formats:

Comma delimited format used in spreadsheet applications
http://www.bom.gov.au/fwo/IDS60801/IDS60801.95823.axf

JavaScript Object Notation format (JSON) in row-major order
http://www.bom.gov.au/fwo/IDS60801/IDS60801.95823.json